Time;durP1;ratioP1;P1;durP2;ratioP2;P2;SDS_P1;SDS_P2;PMS_P1;PMS_P2;Temp;Humidity;BMP_temperature;BMP_pressure;BME280_temperature;BME280_humidity;BME280_pressure;Samples;Min_cycle;Max_cycle;Signal;HPM_P1;HPM_P2
2023/01/16 00:02:12;;;;;;;5.17;4.67;;;;;;;-143.84;95.56;44121.88;5072230;28;20445;-79
2023/01/16 00:04:39;;;;;;;7.40;5.10;;;;;;;-143.84;95.79;44116.16;5072343;28;20433;-79
2023/01/16 00:07:06;;;;;;;9.20;4.23;;;;;;;-143.84;95.82;44112.34;5072083;28;21002;-79
2023/01/16 00:09:33;;;;;;;4.47;4.07;;;;;;;-143.84;94.98;44106.63;5072006;28;20929;-79
2023/01/16 00:12:02;;;;;;;5.53;4.83;;;;;;;-143.84;95.54;44106.63;5072208;28;20482;-79
2023/01/16 00:14:31;;;;;;;4.40;4.00;;;;;;;-143.84;95.89;44112.34;5072345;28;20478;-79
2023/01/16 00:16:58;;;;;;;4.43;4.10;;;;;;;-143.84;95.27;44116.16;5072217;28;21225;-79
2023/01/16 00:19:26;;;;;;;5.50;4.77;;;;;;;-143.84;95.32;44116.16;5078506;28;20445;-79
2023/01/16 00:21:53;;;;;;;7.40;4.63;;;;;;;-143.84;95.32;44104.72;5092322;28;20442;-79
2023/01/16 00:24:20;;;;;;;5.30;4.90;;;;;;;-143.84;95.53;44112.34;5092622;28;21286;-79
2023/01/16 00:26:50;;;;;;;6.30;5.37;;;;;;;-143.84;95.38;44108.53;5092588;28;20428;-79
2023/01/16 00:29:19;;;;;;;6.13;5.63;;;;;;;-143.84;95.17;44119.97;5091982;28;20459;-79
2023/01/16 00:31:46;;;;;;;6.30;5.33;;;;;;;-143.84;94.83;44095.22;5091930;28;20456;-79
2023/01/16 00:34:13;;;;;;;6.70;5.60;;;;;;;-143.84;94.64;44095.22;5091833;28;20442;-79
2023/01/16 00:36:40;;;;;;;6.17;5.67;;;;;;;-143.84;94.84;44100.94;5092427;28;20904;-79
2023/01/16 00:39:08;;;;;;;5.90;5.40;;;;;;;-143.84;94.60;44104.72;5091904;28;20444;-79
2023/01/16 00:41:35;;;;;;;6.07;5.47;;;;;;;-143.84;94.48;44100.94;5091829;28;20812;-79
2023/01/16 00:44:02;;;;;;;7.17;5.60;;;;;;;-143.84;94.71;44104.72;5092140;28;20854;-79
2023/01/16 00:46:32;;;;;;;6.57;5.90;;;;;;;-143.84;94.93;44100.94;5092264;28;20826;-79
2023/01/16 00:48:59;;;;;;;6.10;5.50;;;;;;;-143.84;95.34;44108.53;5091705;28;20440;-80
2023/01/16 00:51:26;;;;;;;9.87;5.30;;;;;;;-143.84;95.45;44119.97;5091661;28;20434;-79
2023/01/16 00:53:54;;;;;;;7.47;5.67;;;;;;;-143.84;95.25;44121.88;5091823;28;20837;-79
2023/01/16 00:56:21;;;;;;;5.90;5.40;;;;;;;-143.84;95.67;44118.06;5091571;28;20484;-79
2023/01/16 00:58:48;;;;;;;5.80;5.00;;;;;;;-143.84;95.54;44127.56;5091644;28;20922;-79
2023/01/16 01:01:15;;;;;;;6.70;5.77;;;;;;;-143.84;95.86;44118.06;5091880;28;20435;-79
2023/01/16 01:03:44;;;;;;;7.73;5.50;;;;;;;-143.84;96.16;44127.56;5091478;28;20489;-79
2023/01/16 01:06:12;;;;;;;8.83;5.97;;;;;;;-143.84;96.18;44131.38;5091684;28;20447;-79
2023/01/16 01:08:39;;;;;;;6.10;5.50;;;;;;;-143.84;96.30;44139.00;5091555;28;20445;-79
2023/01/16 01:11:12;;;;;;;4.93;4.50;;;;;;;-143.84;96.39;44129.47;5091348;28;20865;-79
2023/01/16 01:13:39;;;;;;;8.10;4.60;;;;;;;-143.84;96.13;44139.00;5091459;28;20435;-79
2023/01/16 01:16:08;;;;;;;6.50;5.07;;;;;;;-143.84;96.60;44150.41;5091824;28;20466;-79
2023/01/16 01:18:35;;;;;;;6.70;5.50;;;;;;;-143.84;96.98;44154.22;5091578;28;20503;-79
2023/01/16 01:21:04;;;;;;;7.93;5.47;;;;;;;-143.84;96.82;44167.56;5091432;28;20440;-79
2023/01/16 01:23:31;;;;;;;9.30;6.17;;;;;;;-143.84;96.70;44177.06;5091807;28;20442;-79
2023/01/16 01:25:59;;;;;;;7.77;6.00;;;;;;;-143.84;97.04;44175.16;5091597;28;20492;-79
2023/01/16 01:28:26;;;;;;;6.20;5.40;;;;;;;-143.84;96.78;44173.25;5091478;28;20430;-79
2023/01/16 01:30:53;;;;;;;6.40;5.80;;;;;;;-143.84;96.68;44182.78;5091585;28;20445;-77
2023/01/16 01:33:20;;;;;;;5.93;5.33;;;;;;;-143.84;97.02;44173.25;5091519;28;20873;-78
2023/01/16 01:35:47;;;;;;;8.20;4.80;;;;;;;-143.84;97.09;44178.97;5091264;28;20498;-77
2023/01/16 01:38:15;;;;;;;5.27;4.87;;;;;;;-143.84;97.33;44194.22;5091499;28;20441;-77
2023/01/16 01:40:45;;;;;;;6.70;5.13;;;;;;;-143.84;97.87;44199.91;5091207;28;20438;-78
2023/01/16 01:43:16;;;;;;;5.47;4.97;;;;;;;-143.84;98.01;44207.53;5091507;28;20434;-80
2023/01/16 01:45:46;;;;;;;7.10;5.37;;;;;;;-143.84;98.09;44224.66;5091409;28;20437;-79
2023/01/16 01:48:24;;;;;;;10.60;5.33;;;;;;;-143.84;97.85;44230.38;5091485;28;20437;-80
2023/01/16 01:50:56;;;;;;;5.47;5.07;;;;;;;-143.84;98.83;44251.31;5090918;28;20527;-79
2023/01/16 01:53:28;;;;;;;7.10;6.40;;;;;;;-143.84;98.78;44268.44;5091217;28;20444;-79
2023/01/16 01:55:58;;;;;;;13.93;5.77;;;;;;;-143.84;98.57;44285.59;5091114;28;20554;-79
2023/01/16 01:58:27;;;;;;;6.00;5.50;;;;;;;-143.84;99.42;44304.63;5091429;28;20434;-79
2023/01/16 02:00:58;;;;;;;5.93;5.43;;;;;;;-143.84;99.41;44327.47;5094979;28;20430;-80
2023/01/16 02:03:32;;;;;;;9.30;5.70;;;;;;;-143.84;99.63;44356.03;5095167;28;20434;-79
2023/01/16 02:06:02;;;;;;;6.50;5.90;;;;;;;-143.84;99.67;44378.88;5094765;28;20433;-79
2023/01/16 02:08:33;;;;;;;8.73;7.00;;;;;;;-143.84;99.87;44388.38;5094802;28;20481;-79
2023/01/16 02:11:06;;;;;;;13.07;5.50;;;;;;;-143.84;99.79;44397.91;5094675;28;20939;-79
2023/01/16 02:13:33;;;;;;;6.17;5.50;;;;;;;-143.84;99.97;44401.72;5094605;28;20425;-79
2023/01/16 02:22:01;;;;;;;6.63;4.83;;;;;;;-143.84;99.83;44388.38;5094496;28;20434;-79
2023/01/16 02:25:00;;;;;;;6.97;5.27;;;;;;;-143.84;99.80;44403.63;5094500;28;20943;-79
2023/01/16 02:27:54;;;;;;;9.87;6.33;;;;;;;-143.84;99.72;44413.13;5053426;28;20480;-79
2023/01/16 02:30:51;;;;;;;6.60;6.00;;;;;;;-143.84;100.00;44422.66;5094497;28;20449;-80
2023/01/16 02:33:29;;;;;;;6.93;5.63;;;;;;;-143.84;99.75;44424.56;5092222;28;20445;-80
2023/01/16 02:36:03;;;;;;;8.33;6.20;;;;;;;-143.84;99.63;44420.75;5094263;28;20481;-80
2023/01/16 02:38:39;;;;;;;19.77;6.43;;;;;;;-143.84;99.77;44418.84;5094299;28;20434;-80
2023/01/16 02:41:17;;;;;;;8.73;5.97;;;;;;;-143.84;99.92;44418.84;5094111;28;20426;-80
2023/01/16 02:43:53;;;;;;;6.83;5.73;;;;;;;-143.84;99.81;44409.34;5093871;28;20581;-79
2023/01/16 02:46:29;;;;;;;9.47;6.07;;;;;;;-143.84;99.77;44411.22;5094180;28;20440;-80
2023/01/16 02:49:08;;;;;;;10.13;5.93;;;;;;;-143.84;99.79;44415.03;5093977;28;20486;-79
2023/01/16 02:51:40;;;;;;;9.70;6.50;;;;;;;-143.84;99.62;44416.94;5094079;28;20433;-80
2023/01/16 02:54:11;;;;;;;7.10;6.40;;;;;;;-143.84;99.73;44413.13;5093940;28;20439;-80
2023/01/16 02:56:45;;;;;;;6.83;5.23;;;;;;;-143.84;100.00;44420.75;5093799;28;20470;-80
2023/01/16 02:59:15;;;;;;;7.57;5.50;;;;;;;-143.84;99.83;44409.34;5094058;28;20432;-80
2023/01/16 03:01:42;;;;;;;9.80;5.87;;;;;;;-143.84;99.35;44409.34;5093615;28;20947;-80
2023/01/16 03:04:42;;;;;;;11.50;6.23;;;;;;;-143.84;99.96;44415.03;5093802;28;20843;-80
2023/01/16 03:07:44;;;;;;;9.80;5.77;;;;;;;-143.84;99.50;44413.13;5093511;28;20434;-80
2023/01/16 03:10:40;;;;;;;9.43;6.77;;;;;;;-143.84;99.62;44409.34;5092852;28;20547;-80
2023/01/16 03:13:17;;;;;;;16.40;7.30;;;;;;;-143.84;99.29;44413.13;5092663;28;20488;-80
2023/01/16 03:15:54;;;;;;;12.90;6.10;;;;;;;-143.84;99.69;44409.34;5092678;28;20835;-79
2023/01/16 03:18:33;;;;;;;13.23;7.93;;;;;;;-143.84;99.52;44407.44;5091539;28;20439;-80
2023/01/16 03:21:09;;;;;;;10.30;7.33;;;;;;;-143.84;99.06;44390.28;5093203;28;20421;-79
2023/01/16 03:23:43;;;;;;;10.27;6.80;;;;;;;-143.84;98.77;44380.78;5092474;28;20490;-80
2023/01/16 03:26:16;;;;;;;7.53;6.10;;;;;;;-143.84;99.30;44367.44;5093248;28;20947;-80
2023/01/16 03:28:55;;;;;;;11.67;5.73;;;;;;;-143.84;98.82;44354.13;5093175;28;20435;-80
2023/01/16 03:31:33;;;;;;;9.87;6.77;;;;;;;-143.84;99.10;44356.03;5093285;28;20424;-80
2023/01/16 03:34:10;;;;;;;8.00;5.83;;;;;;;-143.84;98.40;44335.09;5093277;28;20437;-80
2023/01/16 03:36:46;;;;;;;7.80;7.00;;;;;;;-143.84;98.55;44346.50;5092798;28;20484;-80
2023/01/16 03:39:16;;;;;;;7.10;6.20;;;;;;;-143.84;98.46;44352.22;5093058;28;20431;-80
2023/01/16 03:41:46;;;;;;;10.23;6.90;;;;;;;-143.84;98.69;44346.50;5092814;28;20442;-80
2023/01/16 03:44:19;;;;;;;11.20;6.53;;;;;;;-143.84;99.00;44361.72;5093282;28;20854;-80
2023/01/16 03:46:50;;;;;;;10.93;6.73;;;;;;;-143.84;98.92;44354.13;5092817;28;20939;-80
2023/01/16 03:49:21;;;;;;;6.57;5.87;;;;;;;-143.84;98.65;44350.31;5092557;28;20439;-80
2023/01/16 03:51:54;;;;;;;11.77;6.40;;;;;;;-143.84;98.78;44333.19;5091548;28;20486;-79
2023/01/16 03:54:32;;;;;;;7.50;6.40;;;;;;;-143.84;98.49;44314.13;5092730;28;20437;-80
2023/01/16 03:57:08;;;;;;;10.03;6.33;;;;;;;-143.84;98.34;44312.25;5092713;28;20469;-80
2023/01/16 03:59:38;;;;;;;8.27;6.80;;;;;;;-143.84;98.38;44312.25;5092885;28;20480;-80
2023/01/16 04:02:13;;;;;;;9.60;6.23;;;;;;;-143.84;98.54;44310.34;5091902;28;20450;-80
2023/01/16 04:04:45;;;;;;;8.73;6.50;;;;;;;-143.84;98.36;44295.09;5092287;28;20431;-80
2023/01/16 04:07:21;;;;;;;7.00;5.90;;;;;;;-143.84;98.31;44287.50;5089092;28;20447;-79
2023/01/16 04:09:54;;;;;;;13.73;7.00;;;;;;;-143.84;97.93;44289.41;5091719;28;20539;-80
2023/01/16 04:12:26;;;;;;;10.13;5.93;;;;;;;-143.84;97.98;44297.00;5092461;28;20975;-79
2023/01/16 04:14:58;;;;;;;8.33;5.83;;;;;;;-143.84;98.26;44306.53;5091733;28;21182;-79
2023/01/16 04:17:26;;;;;;;12.83;6.47;;;;;;;-143.84;98.53;44312.25;5091914;28;20470;-80
2023/01/16 04:19:54;;;;;;;7.27;5.90;;;;;;;-143.84;98.39;44310.34;5091386;28;20452;-79
2023/01/16 04:22:24;;;;;;;8.40;6.17;;;;;;;-143.84;98.34;44304.63;5091945;28;20454;-79
2023/01/16 04:24:53;;;;;;;12.83;6.00;;;;;;;-143.84;97.77;44289.41;5092596;28;20430;-79
2023/01/16 04:27:21;;;;;;;7.10;6.00;;;;;;;-143.84;97.93;44276.06;5091497;28;20510;-79
2023/01/16 04:29:48;;;;;;;9.60;6.20;;;;;;;-143.84;97.72;44276.06;5091260;28;20442;-80
2023/01/16 04:32:15;;;;;;;9.00;6.67;;;;;;;-143.84;97.75;44270.34;5091441;28;20886;-79
2023/01/16 04:34:42;;;;;;;6.60;5.53;;;;;;;-143.84;97.81;44253.22;5091721;28;20507;-79
2023/01/16 04:37:13;;;;;;;5.37;4.70;;;;;;;-143.84;97.45;44238.00;5091606;28;20535;-79
2023/01/16 04:39:42;;;;;;;5.47;4.90;;;;;;;-143.84;97.04;44224.66;5091268;28;20974;-80
2023/01/16 04:42:09;;;;;;;5.47;4.97;;;;;;;-143.84;97.06;44218.94;5091141;28;20457;-80
2023/01/16 04:44:37;;;;;;;5.97;4.50;;;;;;;-143.84;96.58;44203.72;5091553;28;20947;-79
2023/01/16 04:47:04;;;;;;;9.77;4.00;;;;;;;-143.84;96.28;44196.13;5091187;28;20457;-79
2023/01/16 04:49:33;;;;;;;5.57;4.27;;;;;;;-143.84;95.94;44184.69;5091122;28;20475;-80
2023/01/16 04:52:00;;;;;;;11.00;5.03;;;;;;;-143.84;96.30;44180.88;5091124;28;20445;-79
2023/01/16 04:54:27;;;;;;;6.20;4.87;;;;;;;-143.84;96.42;44178.97;5092014;28;20438;-80
2023/01/16 04:56:56;;;;;;;5.03;4.60;;;;;;;-143.84;96.02;44177.06;5091745;28;20470;-80
2023/01/16 04:59:23;;;;;;;6.63;4.87;;;;;;;-143.84;96.09;44173.25;5091493;28;20454;-80
2023/01/16 05:01:50;;;;;;;6.60;4.73;;;;;;;-143.84;96.14;44169.47;5091704;28;20427;-79
2023/01/16 05:04:18;;;;;;;5.17;4.70;;;;;;;-143.84;96.25;44182.78;5091794;28;20493;-80
2023/01/16 05:06:45;;;;;;;7.13;5.33;;;;;;;-143.84;95.97;44177.06;5080972;28;20510;-81
2023/01/16 05:09:12;;;;;;;9.30;6.13;;;;;;;-143.84;95.62;44163.75;5091941;28;20440;-82
2023/01/16 05:11:39;;;;;;;9.47;4.77;;;;;;;-143.84;95.36;44154.22;5091446;28;20485;-81
2023/01/16 05:14:10;;;;;;;6.10;4.83;;;;;;;-143.84;95.73;44158.03;5090940;28;21063;-79
2023/01/16 05:16:38;;;;;;;6.70;4.77;;;;;;;-143.84;95.20;44158.03;5091625;28;20483;-82
2023/01/16 05:19:05;;;;;;;5.97;4.17;;;;;;;-143.84;95.01;44139.00;5091714;28;20495;-78
2023/01/16 05:21:33;;;;;;;5.50;4.70;;;;;;;-143.84;94.79;44133.28;5091270;28;20828;-81
2023/01/16 05:24:00;;;;;;;7.00;5.27;;;;;;;-143.84;94.60;44129.47;5091442;28;20448;-78
2023/01/16 05:26:27;;;;;;;5.80;5.10;;;;;;;-143.84;94.58;44129.47;5090946;28;20959;-79
2023/01/16 05:28:54;;;;;;;13.00;5.40;;;;;;;-143.84;94.93;44131.38;5091702;28;20427;-79
2023/01/16 05:31:23;;;;;;;8.63;5.60;;;;;;;-143.84;94.50;44135.19;5091360;28;20466;-79
2023/01/16 05:33:50;;;;;;;6.20;5.50;;;;;;;-143.84;94.93;44135.19;5091496;28;20512;-80
2023/01/16 05:36:17;;;;;;;9.00;6.43;;;;;;;-143.84;94.57;44131.38;5095618;28;20477;-80
2023/01/16 05:38:46;;;;;;;7.73;6.93;;;;;;;-143.84;93.81;44114.25;5095429;28;20432;-79
2023/01/16 05:41:13;;;;;;;10.27;8.00;;;;;;;-143.84;93.83;44116.16;5095324;28;20469;-80
2023/01/16 05:49:50;;;;;;;9.70;6.97;;;;;;;-143.84;93.67;44114.25;5065198;28;20490;-80
2023/01/16 05:52:17;;;;;;;10.57;6.97;;;;;;;-143.84;94.12;44110.44;5096018;28;20520;-81
2023/01/16 05:54:44;;;;;;;11.03;7.70;;;;;;;-143.84;94.13;44118.06;5095067;28;20496;-80
2023/01/16 05:57:12;;;;;;;9.40;6.87;;;;;;;-143.84;93.79;44099.03;5095136;28;20469;-80
2023/01/16 05:59:41;;;;;;;10.03;6.93;;;;;;;-143.84;93.37;44106.63;5095186;28;20438;-80
2023/01/16 06:02:08;;;;;;;11.30;7.17;;;;;;;-143.84;93.79;44095.22;5093927;28;20520;-80
2023/01/16 06:04:35;;;;;;;14.77;7.87;;;;;;;-143.84;93.10;44100.94;5094438;28;20480;-80
2023/01/16 06:07:04;;;;;;;9.50;7.53;;;;;;;-143.84;93.51;44095.22;5094278;28;20472;-80
2023/01/16 06:09:31;;;;;;;7.83;6.57;;;;;;;-143.84;93.59;44085.69;5094027;28;20499;-80
2023/01/16 06:11:59;;;;;;;8.90;7.00;;;;;;;-143.84;93.19;44097.13;5093950;28;20860;-80
2023/01/16 06:14:26;;;;;;;7.90;6.53;;;;;;;-143.84;93.57;44089.50;5093922;28;20434;-81
2023/01/16 06:16:53;;;;;;;11.80;6.87;;;;;;;-143.84;93.57;44080.00;5094262;28;20890;-80
2023/01/16 06:19:20;;;;;;;6.17;5.57;;;;;;;-143.84;93.34;44085.69;5094788;28;20496;-80
2023/01/16 06:21:48;;;;;;;9.77;5.90;;;;;;;-143.84;93.07;44093.31;5094421;28;20440;-80
2023/01/16 06:24:16;;;;;;;6.27;5.50;;;;;;;-143.84;92.34;44091.41;5094282;28;20434;-80
2023/01/16 06:26:43;;;;;;;7.80;6.00;;;;;;;-143.84;92.30;44066.66;5094925;28;20443;-80
2023/01/16 06:29:11;;;;;;;7.30;6.07;;;;;;;-143.84;92.37;44066.66;5094253;28;20827;-80
2023/01/16 06:31:38;;;;;;;6.10;5.50;;;;;;;-143.84;92.63;44078.09;5094261;28;20447;-80
2023/01/16 06:34:05;;;;;;;11.47;5.40;;;;;;;-143.84;92.30;44060.94;5094162;28;20442;-80
2023/01/16 06:36:32;;;;;;;11.63;6.40;;;;;;;-143.84;92.92;44059.03;5094296;28;20478;-80
2023/01/16 06:38:59;;;;;;;13.23;5.67;;;;;;;-143.84;92.32;44076.19;5094384;28;20851;-80
2023/01/16 06:41:28;;;;;;;6.87;6.00;;;;;;;-143.84;92.72;44066.66;5094090;28;20421;-80
2023/01/16 06:43:55;;;;;;;6.57;5.97;;;;;;;-143.84;92.60;44070.47;5093544;28;20441;-80
2023/01/16 06:46:22;;;;;;;8.43;6.10;;;;;;;-143.84;92.26;44078.09;5093285;28;20422;-80
2023/01/16 06:48:49;;;;;;;6.77;5.57;;;;;;;-143.84;92.71;44072.38;5093091;28;21016;-80
2023/01/16 06:51:16;;;;;;;7.47;6.20;;;;;;;-143.84;91.95;44059.03;5092196;28;20963;-80
2023/01/16 06:53:43;;;;;;;11.60;7.83;;;;;;;-143.84;92.48;44060.94;5093431;28;20426;-80
2023/01/16 06:56:10;;;;;;;10.17;7.90;;;;;;;-143.84;92.17;44074.28;5094059;28;20439;-80
2023/01/16 06:58:39;;;;;;;16.10;7.03;;;;;;;-143.84;92.29;44060.94;5093690;28;20454;-80
2023/01/16 07:01:07;;;;;;;10.77;6.93;;;;;;;-143.84;92.16;44041.91;5093732;28;20496;-80
2023/01/16 07:03:34;;;;;;;10.00;7.67;;;;;;;-143.84;91.35;44043.81;5093594;28;20439;-80
2023/01/16 07:06:01;;;;;;;15.00;10.03;;;;;;;-143.84;91.44;44043.81;5093744;28;20439;-80
2023/01/16 07:08:28;;;;;;;15.80;8.00;;;;;;;-143.84;91.58;44036.22;5093414;28;20435;-80
2023/01/16 07:10:59;;;;;;;12.60;9.47;;;;;;;-143.84;91.00;44036.22;5093382;28;20480;-80
2023/01/16 07:13:28;;;;;;;15.00;10.40;;;;;;;-143.84;90.91;44034.31;5093423;28;20508;-80
2023/01/16 07:24:23;;;;;;;12.23;7.67;;;;;;;-143.84;90.93;44020.97;5093381;28;20422;-80
2023/01/16 07:26:54;;;;;;;9.80;8.20;;;;;;;-143.84;90.26;44005.75;5093536;28;20474;-80
2023/01/16 07:29:21;;;;;;;12.30;8.57;;;;;;;-143.84;89.97;44005.75;5092266;28;20434;-80
2023/01/16 07:31:50;;;;;;;14.17;10.80;;;;;;;-143.84;89.76;44007.66;5093287;28;20428;-81
2023/01/16 07:34:17;;;;;;;17.90;10.67;;;;;;;-143.84;90.07;44001.94;5093148;28;20444;-80
2023/01/16 07:36:44;;;;;;;16.50;11.07;;;;;;;-143.84;90.12;44022.88;5092907;28;21195;-80
2023/01/16 07:39:11;;;;;;;15.50;12.13;;;;;;;-143.84;89.76;43986.72;5092962;28;20924;-80
2023/01/16 07:41:38;;;;;;;23.10;12.47;;;;;;;-143.84;89.19;43984.81;5092790;28;20878;-80
2023/01/16 07:44:06;;;;;;;15.60;10.20;;;;;;;-143.84;89.44;43996.22;5092956;28;20850;-80
2023/01/16 07:46:33;;;;;;;10.37;7.20;;;;;;;-143.84;89.30;43979.09;5092891;28;20533;-80
2023/01/16 07:49:02;;;;;;;11.83;7.87;;;;;;;-143.84;89.17;43982.91;5092815;28;20917;-80
2023/01/16 07:51:29;;;;;;;10.00;7.20;;;;;;;-143.84;89.30;43973.38;5092856;28;20452;-80
2023/01/16 07:53:56;;;;;;;10.97;5.67;;;;;;;-143.84;89.57;43984.81;5092521;28;20500;-80
2023/01/16 07:56:24;;;;;;;9.57;7.00;;;;;;;-143.84;89.10;43982.91;5092874;28;20505;-80
2023/01/16 07:58:54;;;;;;;8.13;6.87;;;;;;;-143.84;88.15;43946.75;5092146;28;20517;-80
2023/01/16 08:01:21;;;;;;;13.53;7.17;;;;;;;-143.84;88.42;43965.78;5092369;28;20438;-80
2023/01/16 08:03:48;;;;;;;9.60;6.63;;;;;;;-143.84;87.88;43961.97;5092412;28;20431;-80
2023/01/16 08:06:17;;;;;;;7.47;6.70;;;;;;;-143.84;87.88;43954.34;5092472;28;20469;-80
2023/01/16 08:08:44;;;;;;;19.67;7.83;;;;;;;-143.84;87.43;43929.59;5092397;28;20435;-80
2023/01/16 08:13:56;;;;;;;11.13;7.70;;;;;;;-143.84;88.08;43960.06;5092256;28;20929;-80
2023/01/16 08:16:23;;;;;;;7.30;6.40;;;;;;;-143.84;86.98;43929.59;5092319;28;20826;-80
2023/01/16 08:18:50;;;;;;;12.30;6.80;;;;;;;-143.84;86.62;43904.84;5092116;28;20980;-80
2023/01/16 08:21:19;;;;;;;7.53;6.73;;;;;;;-143.84;86.71;43937.22;5092418;28;20432;-80
2023/01/16 08:23:46;;;;;;;7.87;6.97;;;;;;;-143.84;86.94;43912.47;5091998;28;20439;-80
2023/01/16 08:26:14;;;;;;;12.70;7.03;;;;;;;-143.84;87.26;43925.78;5092329;28;20887;-80
2023/01/16 08:28:41;;;;;;;10.97;7.87;;;;;;;-143.84;87.47;43941.03;5092089;28;20447;-80
2023/01/16 08:31:12;;;;;;;8.60;7.20;;;;;;;-143.84;88.29;43939.13;5092016;28;20455;-80
2023/01/16 08:33:40;;;;;;;9.40;7.67;;;;;;;-143.84;88.19;43950.53;5091871;28;20438;-80
2023/01/16 08:36:10;;;;;;;9.27;6.47;;;;;;;-143.84;88.30;43975.28;5091793;28;20441;-80
2023/01/16 08:38:39;;;;;;;15.03;10.40;;;;;;;-143.84;89.04;43975.28;5091826;28;20524;-80
2023/01/16 08:51:21;;;;;;;15.80;10.10;;;;;;;-143.84;88.77;43973.38;5092387;28;20499;-80
2023/01/16 08:52:08;;;;;;;17.53;7.30;;;;;;;-143.84;89.20;43977.19;5091912;28;20415;-80
2023/01/16 08:54:37;;;;;;;7.77;5.57;;;;;;;-143.84;89.15;43981.00;5091758;28;20523;-80
2023/01/16 08:57:04;;;;;;;23.63;6.67;;;;;;;-143.84;88.90;43954.34;5091947;28;20504;-80
2023/01/16 08:59:33;;;;;;;11.10;7.50;;;;;;;-143.84;88.42;43944.84;5092041;28;20511;-80
2023/01/16 09:02:01;;;;;;;7.27;6.47;;;;;;;-143.84;88.44;43971.47;5091806;28;20447;-80
2023/01/16 09:04:29;;;;;;;10.30;6.90;;;;;;;-143.84;88.13;43961.97;5091553;28;20519;-80
2023/01/16 09:06:56;;;;;;;10.77;7.77;;;;;;;-143.84;87.82;43922.00;5091626;28;20434;-77
2023/01/16 09:09:24;;;;;;;8.60;7.60;;;;;;;-143.84;87.66;43944.84;5092786;28;20431;-77
2023/01/16 09:14:41;;;;;;;12.37;8.47;;;;;;;-143.84;87.13;43944.84;5095976;28;20423;-80
2023/01/16 09:17:09;;;;;;;11.17;8.53;;;;;;;-143.84;86.52;43927.69;5095827;28;20488;-80
2023/01/16 09:19:36;;;;;;;10.70;9.27;;;;;;;-143.84;85.23;43887.72;5095852;28;20481;-80
2023/01/16 09:22:05;;;;;;;10.07;8.60;;;;;;;-143.84;84.26;43899.16;5095634;28;20501;-78
2023/01/16 09:24:33;;;;;;;18.70;8.20;;;;;;;-143.84;84.04;43861.06;5095802;28;20431;-77
2023/01/16 09:27:02;;;;;;;11.80;9.00;;;;;;;-143.84;83.58;43857.28;5095463;28;20968;-77
2023/01/16 09:29:29;;;;;;;14.50;9.97;;;;;;;-143.84;83.88;43861.06;5095585;28;20497;-78
2023/01/16 09:31:56;;;;;;;11.53;8.33;;;;;;;-143.84;84.92;43870.59;5095751;28;21081;-78
2023/01/16 09:34:23;;;;;;;13.60;8.30;;;;;;;-143.84;84.78;43864.88;5095748;28;20442;-77
2023/01/16 09:36:50;;;;;;;10.00;7.50;;;;;;;-143.84;85.29;43925.78;5095366;28;20497;-78
2023/01/16 09:39:18;;;;;;;10.37;8.50;;;;;;;-143.84;85.54;43904.84;5095573;28;20968;-77
2023/01/16 09:44:47;;;;;;;10.23;8.03;;;;;;;-143.84;84.67;43874.41;5095342;28;20427;-78
2023/01/16 09:47:14;;;;;;;18.90;8.27;;;;;;;-143.84;84.14;43872.50;5095074;28;20440;-80
2023/01/16 09:49:48;;;;;;;13.07;8.67;;;;;;;-143.84;84.31;43851.56;5095586;28;20833;-80
2023/01/16 10:00:51;;;;;;;14.93;9.80;;;;;;;-143.84;83.41;43872.50;5095216;28;20439;-80
2023/01/16 10:03:19;;;;;;;19.83;8.70;;;;;;;-143.84;83.31;43823.00;5095429;28;20444;-80
2023/01/16 10:05:53;;;;;;;15.20;9.03;;;;;;;-143.84;82.01;43942.94;5094812;28;20451;-80
2023/01/16 10:08:28;;;;;;;9.60;8.27;;;;;;;-143.84;82.14;43944.84;5094987;28;20441;-80
2023/01/16 10:11:06;;;;;;;12.93;9.47;;;;;;;-143.84;81.77;43948.63;5094853;28;20443;-80
2023/01/16 10:13:47;;;;;;;10.47;8.33;;;;;;;-143.84;81.67;43998.13;5094783;28;20492;-80
2023/01/16 10:16:27;;;;;;;11.87;7.60;;;;;;;-143.84;83.32;43868.69;5094717;28;20431;-80
2023/01/16 10:19:01;;;;;;;13.93;9.20;;;;;;;-143.84;84.40;43847.75;5094200;28;20468;-80
2023/01/16 10:21:42;;;;;;;11.67;8.00;;;;;;;-143.84;84.74;43880.13;5093220;28;20436;-80
2023/01/16 10:24:20;;;;;;;12.10;9.03;;;;;;;-143.84;84.94;43868.69;5093045;28;20811;-80
2023/01/16 10:26:56;;;;;;;20.90;8.10;;;;;;;-143.84;86.03;43920.09;5093962;28;20449;-80
2023/01/16 10:29:30;;;;;;;15.17;9.03;;;;;;;-143.84;87.44;43937.22;5094477;28;20867;-80
2023/01/16 10:32:04;;;;;;;15.30;10.33;;;;;;;-143.84;88.10;43958.16;5094267;28;20456;-80
2023/01/16 10:34:37;;;;;;;17.57;9.10;;;;;;;-143.84;87.24;43912.47;5094647;28;20444;-80
2023/01/16 10:37:06;;;;;;;12.30;8.20;;;;;;;-143.84;87.66;43935.31;5094636;28;20428;-80
2023/01/16 10:39:35;;;;;;;13.27;9.60;;;;;;;-143.84;88.30;43956.25;5094329;28;20474;-80
2023/01/16 10:50:40;;;;;;;11.87;8.70;;;;;;;-143.84;87.36;43948.63;5094034;28;20786;-80
2023/01/16 10:53:10;;;;;;;16.83;9.73;;;;;;;-143.84;87.52;43925.78;5093986;28;20504;-80
2023/01/16 10:55:41;;;;;;;14.37;9.80;;;;;;;-143.84;87.93;43950.53;5094005;28;20504;-80
2023/01/16 10:58:22;;;;;;;20.03;10.80;;;;;;;-143.84;87.39;43944.84;5093812;28;20460;-78
2023/01/16 11:00:50;;;;;;;13.40;9.60;;;;;;;-143.84;87.43;43939.13;5093790;28;20500;-78
2023/01/16 11:03:24;;;;;;;14.20;10.30;;;;;;;-143.84;87.87;43941.03;5093624;28;20450;-77
2023/01/16 11:05:52;;;;;;;17.30;10.50;;;;;;;-143.84;88.21;43950.53;5093618;28;20462;-77
2023/01/16 11:08:20;;;;;;;13.07;10.40;;;;;;;-143.84;89.13;43975.28;5094188;28;20434;-77
2023/01/16 11:10:50;;;;;;;15.07;9.57;;;;;;;-143.84;89.30;43986.72;5093902;28;20454;-77
2023/01/16 11:19:17;;;;;;;22.57;10.03;;;;;;;-143.84;88.13;43939.13;5093449;28;20932;-80
2023/01/16 11:21:49;;;;;;;15.67;9.17;;;;;;;-143.84;88.67;43975.28;5093320;28;20526;-80
2023/01/16 11:24:19;;;;;;;12.73;9.53;;;;;;;-143.84;89.17;43984.81;5093618;28;20432;-81
2023/01/16 11:26:54;;;;;;;16.53;9.70;;;;;;;-143.84;90.30;43984.81;5093675;28;20921;-80
2023/01/16 11:29:24;;;;;;;24.60;9.20;;;;;;;-143.84;90.69;44015.25;5093539;28;20435;-80
2023/01/16 11:31:56;;;;;;;18.80;10.60;;;;;;;-143.84;90.94;44028.59;5092470;28;20515;-80
2023/01/16 11:34:27;;;;;;;17.97;10.63;;;;;;;-143.84;91.35;44026.69;5093156;28;20432;-80
2023/01/16 11:36:57;;;;;;;22.93;11.00;;;;;;;-143.84;91.06;44032.41;5093151;28;20474;-80
2023/01/16 11:39:28;;;;;;;19.37;10.70;;;;;;;-143.84;91.32;44024.78;5093030;28;20474;-77
2023/01/16 11:41:58;;;;;;;17.43;9.80;;;;;;;-143.84;91.29;44028.59;5093218;28;21286;-78
2023/01/16 11:47:17;;;;;;;19.47;10.37;;;;;;;-143.84;92.25;44057.16;5093093;28;20427;-77
2023/01/16 11:49:48;;;;;;;20.77;10.20;;;;;;;-143.84;93.02;44085.69;5092798;28;20444;-78
2023/01/16 11:52:26;;;;;;;20.77;12.40;;;;;;;-143.84;93.08;44085.69;5092956;28;20443;-77
2023/01/16 11:54:55;;;;;;;18.70;12.40;;;;;;;-143.84;93.63;44091.41;5092680;28;20450;-77
2023/01/16 11:57:34;;;;;;;18.70;11.33;;;;;;;-143.84;93.59;44095.22;5092682;28;20522;-77
2023/01/16 12:00:25;;;;;;;19.50;11.80;;;;;;;-143.84;93.98;44108.53;5092918;28;21014;-77
2023/01/16 12:03:25;;;;;;;16.40;11.67;;;;;;;-143.84;93.85;44106.63;5093032;28;20432;-78
2023/01/16 12:06:02;;;;;;;18.17;11.10;;;;;;;-143.84;93.45;44097.13;5024977;28;20441;-78
2023/01/16 12:08:44;;;;;;;20.80;12.90;;;;;;;-143.84;93.82;44102.84;5072714;28;20437;-78
2023/01/16 12:11:17;;;;;;;24.97;11.63;;;;;;;-143.84;94.17;44108.53;5071904;28;20483;-78
2023/01/16 12:16:53;;;;;;;25.23;11.37;;;;;;;-143.84;94.98;44137.09;5035785;28;20856;-77
2023/01/16 12:19:56;;;;;;;23.97;12.30;;;;;;;-143.84;95.74;44159.94;5073871;28;20893;-77
2023/01/16 12:22:39;;;;;;;18.70;11.10;;;;;;;-143.84;96.16;44171.38;5092395;28;20873;-78
2023/01/16 12:25:18;;;;;;;26.57;15.80;;;;;;;-143.84;96.29;44186.59;5092275;28;20492;-78
2023/01/16 12:27:56;;;;;;;32.30;15.17;;;;;;;-143.84;95.99;44173.25;5091248;28;20512;-78
2023/01/16 12:30:30;;;;;;;30.73;12.77;;;;;;;-143.84;95.87;44173.25;5092160;28;20450;-80
2023/01/16 12:33:12;;;;;;;23.10;14.00;;;;;;;-143.84;95.89;44165.66;5092426;28;20440;-80
2023/01/16 12:35:51;;;;;;;22.53;13.83;;;;;;;-143.84;96.04;44184.69;5092245;28;20817;-80